sensor_id;sensor_type;location;lat;lon;timestamp;temperature;humidity
65406;DHT22;52016;51.228;-2.322;2022-09-27T00:01:58;12.90;66.90
65406;DHT22;52016;51.228;-2.322;2022-09-27T00:05:40;12.90;66.80
65406;DHT22;52016;51.228;-2.322;2022-09-27T00:09:22;12.90;66.70
65406;DHT22;52016;51.228;-2.322;2022-09-27T00:13:04;12.90;66.70
65406;DHT22;52016;51.228;-2.322;2022-09-27T00:16:46;12.90;66.60
65406;DHT22;52016;51.228;-2.322;2022-09-27T00:20:28;12.90;66.60
65406;DHT22;52016;51.228;-2.322;2022-09-27T00:24:13;12.90;66.60
65406;DHT22;52016;51.228;-2.322;2022-09-27T00:27:56;12.90;66.70
65406;DHT22;52016;51.228;-2.322;2022-09-27T00:31:38;12.90;66.60
65406;DHT22;52016;51.228;-2.322;2022-09-27T00:35:20;12.90;66.70
65406;DHT22;52016;51.228;-2.322;2022-09-27T00:39:02;12.90;66.70
65406;DHT22;52016;51.228;-2.322;2022-09-27T00:42:44;12.80;66.80
65406;DHT22;52016;51.228;-2.322;2022-09-27T00:46:33;12.80;66.80
65406;DHT22;52016;51.228;-2.322;2022-09-27T00:50:24;12.80;66.70
65406;DHT22;52016;51.228;-2.322;2022-09-27T00:54:10;12.80;66.90
65406;DHT22;52016;51.228;-2.322;2022-09-27T00:57:53;12.80;66.60
65406;DHT22;52016;51.228;-2.322;2022-09-27T01:01:35;12.80;66.50
65406;DHT22;52016;51.228;-2.322;2022-09-27T01:05:19;12.80;66.50
65406;DHT22;52016;51.228;-2.322;2022-09-27T01:09:02;12.80;66.40
65406;DHT22;52016;51.228;-2.322;2022-09-27T01:17:11;12.70;67.00
65406;DHT22;52016;51.228;-2.322;2022-09-27T01:33:07;12.60;66.90
65406;DHT22;52016;51.228;-2.322;2022-09-27T01:45:12;12.60;66.80
65406;DHT22;52016;51.228;-2.322;2022-09-27T01:48:57;12.60;66.80
65406;DHT22;52016;51.228;-2.322;2022-09-27T01:52:46;12.60;66.70
65406;DHT22;52016;51.228;-2.322;2022-09-27T01:56:33;12.60;66.60
65406;DHT22;52016;51.228;-2.322;2022-09-27T02:00:16;12.60;66.60
65406;DHT22;52016;51.228;-2.322;2022-09-27T02:03:59;12.60;66.60
65406;DHT22;52016;51.228;-2.322;2022-09-27T02:07:48;12.50;66.60
65406;DHT22;52016;51.228;-2.322;2022-09-27T02:11:33;12.60;66.70
65406;DHT22;52016;51.228;-2.322;2022-09-27T02:15:17;12.60;66.60
65406;DHT22;52016;51.228;-2.322;2022-09-27T02:23:09;12.60;66.40
65406;DHT22;52016;51.228;-2.322;2022-09-27T02:27:04;12.50;66.80
65406;DHT22;52016;51.228;-2.322;2022-09-27T02:30:47;12.60;66.70
65406;DHT22;52016;51.228;-2.322;2022-09-27T02:34:31;12.60;66.50
65406;DHT22;52016;51.228;-2.322;2022-09-27T02:38:14;12.60;66.40
65406;DHT22;52016;51.228;-2.322;2022-09-27T02:41:56;12.60;66.30
65406;DHT22;52016;51.228;-2.322;2022-09-27T02:46:00;12.60;66.30
65406;DHT22;52016;51.228;-2.322;2022-09-27T02:50:08;12.50;66.40
65406;DHT22;52016;51.228;-2.322;2022-09-27T02:54:49;12.50;66.30
65406;DHT22;52016;51.228;-2.322;2022-09-27T03:02:14;12.40;66.40
65406;DHT22;52016;51.228;-2.322;2022-09-27T03:06:03;12.40;66.20
65406;DHT22;52016;51.228;-2.322;2022-09-27T03:09:49;12.40;66.20
65406;DHT22;52016;51.228;-2.322;2022-09-27T03:13:31;12.30;66.20
65406;DHT22;52016;51.228;-2.322;2022-09-27T03:17:13;12.30;66.30
65406;DHT22;52016;51.228;-2.322;2022-09-27T03:20:54;12.30;66.30
65406;DHT22;52016;51.228;-2.322;2022-09-27T03:24:36;12.30;66.30
65406;DHT22;52016;51.228;-2.322;2022-09-27T03:28:18;12.20;66.40
65406;DHT22;52016;51.228;-2.322;2022-09-27T03:32:01;12.30;66.40
65406;DHT22;52016;51.228;-2.322;2022-09-27T03:35:43;12.30;66.50
65406;DHT22;52016;51.228;-2.322;2022-09-27T03:39:25;12.30;66.40
65406;DHT22;52016;51.228;-2.322;2022-09-27T03:43:07;12.30;66.50
65406;DHT22;52016;51.228;-2.322;2022-09-27T03:46:49;12.20;66.50
65406;DHT22;52016;51.228;-2.322;2022-09-27T03:50:31;12.30;66.60
65406;DHT22;52016;51.228;-2.322;2022-09-27T03:54:13;12.30;66.50
65406;DHT22;52016;51.228;-2.322;2022-09-27T03:57:55;12.30;66.70
65406;DHT22;52016;51.228;-2.322;2022-09-27T04:01:37;12.30;66.60
65406;DHT22;52016;51.228;-2.322;2022-09-27T04:05:19;12.30;67.00
65406;DHT22;52016;51.228;-2.322;2022-09-27T04:09:01;12.30;66.80
65406;DHT22;52016;51.228;-2.322;2022-09-27T04:12:44;12.30;66.90
65406;DHT22;52016;51.228;-2.322;2022-09-27T04:16:26;12.20;66.90
65406;DHT22;52016;51.228;-2.322;2022-09-27T04:20:09;12.20;66.90
65406;DHT22;52016;51.228;-2.322;2022-09-27T04:23:52;12.10;66.90
65406;DHT22;52016;51.228;-2.322;2022-09-27T04:27:34;12.10;66.90
65406;DHT22;52016;51.228;-2.322;2022-09-27T04:31:16;12.10;67.00
65406;DHT22;52016;51.228;-2.322;2022-09-27T04:34:58;12.10;67.00
65406;DHT22;52016;51.228;-2.322;2022-09-27T04:39:00;12.10;66.90
65406;DHT22;52016;51.228;-2.322;2022-09-27T04:42:43;12.10;66.90
65406;DHT22;52016;51.228;-2.322;2022-09-27T04:46:25;12.20;66.90
65406;DHT22;52016;51.228;-2.322;2022-09-27T04:50:11;12.10;66.80
65406;DHT22;52016;51.228;-2.322;2022-09-27T04:53:55;12.10;66.80
65406;DHT22;52016;51.228;-2.322;2022-09-27T04:57:37;12.20;66.70
65406;DHT22;52016;51.228;-2.322;2022-09-27T05:01:19;12.20;66.60
65406;DHT22;52016;51.228;-2.322;2022-09-27T05:05:02;12.20;66.60
65406;DHT22;52016;51.228;-2.322;2022-09-27T05:08:44;12.20;66.50
65406;DHT22;52016;51.228;-2.322;2022-09-27T05:12:26;12.20;66.50
65406;DHT22;52016;51.228;-2.322;2022-09-27T05:16:08;12.20;66.40
65406;DHT22;52016;51.228;-2.322;2022-09-27T05:19:50;12.20;66.40
65406;DHT22;52016;51.228;-2.322;2022-09-27T05:23:31;12.20;66.50
65406;DHT22;52016;51.228;-2.322;2022-09-27T05:27:14;12.20;66.40
65406;DHT22;52016;51.228;-2.322;2022-09-27T05:31:01;12.20;66.30
65406;DHT22;52016;51.228;-2.322;2022-09-27T05:34:43;12.30;66.30
65406;DHT22;52016;51.228;-2.322;2022-09-27T05:38:25;12.20;66.30
65406;DHT22;52016;51.228;-2.322;2022-09-27T05:42:07;12.30;66.40
65406;DHT22;52016;51.228;-2.322;2022-09-27T05:45:51;12.30;66.40
65406;DHT22;52016;51.228;-2.322;2022-09-27T05:49:33;12.20;66.30
65406;DHT22;52016;51.228;-2.322;2022-09-27T05:53:15;12.20;66.40
65406;DHT22;52016;51.228;-2.322;2022-09-27T05:56:57;12.20;66.50
65406;DHT22;52016;51.228;-2.322;2022-09-27T06:00:39;12.10;66.50
65406;DHT22;52016;51.228;-2.322;2022-09-27T06:04:21;12.10;66.60
65406;DHT22;52016;51.228;-2.322;2022-09-27T06:08:07;12.20;66.80
65406;DHT22;52016;51.228;-2.322;2022-09-27T06:11:49;12.20;67.10
65406;DHT22;52016;51.228;-2.322;2022-09-27T06:15:32;12.20;67.10
65406;DHT22;52016;51.228;-2.322;2022-09-27T06:19:15;12.20;67.30
65406;DHT22;52016;51.228;-2.322;2022-09-27T06:26:49;12.00;67.90
65406;DHT22;52016;51.228;-2.322;2022-09-27T06:30:31;12.00;67.90
65406;DHT22;52016;51.228;-2.322;2022-09-27T06:34:13;12.00;68.20
65406;DHT22;52016;51.228;-2.322;2022-09-27T06:37:56;12.00;68.40
65406;DHT22;52016;51.228;-2.322;2022-09-27T06:41:38;12.00;68.30
65406;DHT22;52016;51.228;-2.322;2022-09-27T06:45:20;12.00;68.70
65406;DHT22;52016;51.228;-2.322;2022-09-27T06:49:02;12.00;68.90
65406;DHT22;52016;51.228;-2.322;2022-09-27T06:52:50;12.10;68.70
65406;DHT22;52016;51.228;-2.322;2022-09-27T06:56:32;12.00;69.00
65406;DHT22;52016;51.228;-2.322;2022-09-27T07:00:14;12.10;68.80
65406;DHT22;52016;51.228;-2.322;2022-09-27T07:04:04;12.10;68.80
65406;DHT22;52016;51.228;-2.322;2022-09-27T07:07:48;12.10;68.90
65406;DHT22;52016;51.228;-2.322;2022-09-27T07:11:30;12.10;68.90
65406;DHT22;52016;51.228;-2.322;2022-09-27T07:15:12;12.10;69.00
65406;DHT22;52016;51.228;-2.322;2022-09-27T07:18:54;12.20;69.00
65406;DHT22;52016;51.228;-2.322;2022-09-27T07:22:42;12.10;69.20
65406;DHT22;52016;51.228;-2.322;2022-09-27T07:26:25;12.10;69.40
65406;DHT22;52016;51.228;-2.322;2022-09-27T07:30:08;12.10;69.40
65406;DHT22;52016;51.228;-2.322;2022-09-27T07:33:50;12.10;69.70
65406;DHT22;52016;51.228;-2.322;2022-09-27T07:37:34;12.10;69.80
65406;DHT22;52016;51.228;-2.322;2022-09-27T07:41:17;12.20;70.10
65406;DHT22;52016;51.228;-2.322;2022-09-27T07:45:00;12.20;70.40
65406;DHT22;52016;51.228;-2.322;2022-09-27T07:48:41;12.30;69.90
65406;DHT22;52016;51.228;-2.322;2022-09-27T07:52:23;12.30;70.20
65406;DHT22;52016;51.228;-2.322;2022-09-27T07:56:05;12.40;70.30
65406;DHT22;52016;51.228;-2.322;2022-09-27T07:59:47;12.60;70.40
65406;DHT22;52016;51.228;-2.322;2022-09-27T08:03:29;12.90;70.30
65406;DHT22;52016;51.228;-2.322;2022-09-27T08:07:13;13.00;70.10
65406;DHT22;52016;51.228;-2.322;2022-09-27T08:10:55;13.20;69.90
65406;DHT22;52016;51.228;-2.322;2022-09-27T08:14:37;13.30;69.70
65406;DHT22;52016;51.228;-2.322;2022-09-27T08:18:27;13.30;69.70
65406;DHT22;52016;51.228;-2.322;2022-09-27T08:22:10;13.30;69.70
65406;DHT22;52016;51.228;-2.322;2022-09-27T08:25:56;13.20;69.80
65406;DHT22;52016;51.228;-2.322;2022-09-27T08:29:40;13.30;69.80
65406;DHT22;52016;51.228;-2.322;2022-09-27T08:33:22;13.30;69.70
65406;DHT22;52016;51.228;-2.322;2022-09-27T08:37:13;13.40;69.70
65406;DHT22;52016;51.228;-2.322;2022-09-27T08:41:20;13.40;69.70
65406;DHT22;52016;51.228;-2.322;2022-09-27T08:45:19;13.40;69.80
65406;DHT22;52016;51.228;-2.322;2022-09-27T08:49:09;13.50;69.60
65406;DHT22;52016;51.228;-2.322;2022-09-27T08:56:45;13.80;69.00
65406;DHT22;52016;51.228;-2.322;2022-09-27T09:00:29;13.90;68.90
65406;DHT22;52016;51.228;-2.322;2022-09-27T09:04:20;14.00;68.40
65406;DHT22;52016;51.228;-2.322;2022-09-27T09:16:46;14.20;67.40
65406;DHT22;52016;51.228;-2.322;2022-09-27T09:36:33;14.90;65.80
65406;DHT22;52016;51.228;-2.322;2022-09-27T09:40:25;15.00;65.00
65406;DHT22;52016;51.228;-2.322;2022-09-27T09:52:23;14.90;64.90
65406;DHT22;52016;51.228;-2.322;2022-09-27T09:56:10;15.00;64.90
65406;DHT22;52016;51.228;-2.322;2022-09-27T10:00:13;15.10;64.80
65406;DHT22;52016;51.228;-2.322;2022-09-27T10:03:56;15.20;64.20
65406;DHT22;52016;51.228;-2.322;2022-09-27T10:07:38;15.30;64.10
65406;DHT22;52016;51.228;-2.322;2022-09-27T10:11:24;15.40;63.80
65406;DHT22;52016;51.228;-2.322;2022-09-27T10:15:11;15.50;63.40
65406;DHT22;52016;51.228;-2.322;2022-09-27T10:19:02;15.60;63.10
65406;DHT22;52016;51.228;-2.322;2022-09-27T10:22:48;15.70;61.80
65406;DHT22;52016;51.228;-2.322;2022-09-27T10:26:36;15.80;62.50
65406;DHT22;52016;51.228;-2.322;2022-09-27T10:30:29;15.80;62.10
65406;DHT22;52016;51.228;-2.322;2022-09-27T10:34:33;15.80;61.70
65406;DHT22;52016;51.228;-2.322;2022-09-27T10:46:15;15.70;60.40
65406;DHT22;52016;51.228;-2.322;2022-09-27T10:50:05;15.60;60.40
65406;DHT22;52016;51.228;-2.322;2022-09-27T10:53:48;15.50;60.40
65406;DHT22;52016;51.228;-2.322;2022-09-27T10:57:31;15.50;60.90
65406;DHT22;52016;51.228;-2.322;2022-09-27T11:08:54;15.60;61.10
65406;DHT22;52016;51.228;-2.322;2022-09-27T11:12:36;15.70;60.80
65406;DHT22;52016;51.228;-2.322;2022-09-27T11:16:32;15.70;60.80
65406;DHT22;52016;51.228;-2.322;2022-09-27T11:53:00;15.80;60.20
65406;DHT22;52016;51.228;-2.322;2022-09-27T12:01:09;15.70;60.30
65406;DHT22;52016;51.228;-2.322;2022-09-27T12:12:49;15.90;60.60
65406;DHT22;52016;51.228;-2.322;2022-09-27T12:16:32;16.20;60.50
65406;DHT22;52016;51.228;-2.322;2022-09-27T12:24:02;16.40;59.70
65406;DHT22;52016;51.228;-2.322;2022-09-27T12:27:50;16.60;59.60
65406;DHT22;52016;51.228;-2.322;2022-09-27T12:31:43;16.60;59.30
65406;DHT22;52016;51.228;-2.322;2022-09-27T12:35:28;16.70;59.10
65406;DHT22;52016;51.228;-2.322;2022-09-27T12:43:22;16.90;57.10
65406;DHT22;52016;51.228;-2.322;2022-09-27T12:48:07;16.90;57.90
65406;DHT22;52016;51.228;-2.322;2022-09-27T12:51:34;17.10;57.50
65406;DHT22;52016;51.228;-2.322;2022-09-27T13:15:45;18.00;54.60
65406;DHT22;52016;51.228;-2.322;2022-09-27T13:19:43;17.90;55.50
65406;DHT22;52016;51.228;-2.322;2022-09-27T13:31:11;17.70;54.70
65406;DHT22;52016;51.228;-2.322;2022-09-27T13:35:22;17.50;54.90
65406;DHT22;52016;51.228;-2.322;2022-09-27T13:39:16;17.40;55.10
65406;DHT22;52016;51.228;-2.322;2022-09-27T13:47:31;17.20;55.50
65406;DHT22;52016;51.228;-2.322;2022-09-27T13:55:42;16.90;55.30
65406;DHT22;52016;51.228;-2.322;2022-09-27T13:59:40;16.60;55.40
65406;DHT22;52016;51.228;-2.322;2022-09-27T14:03:36;16.50;55.30
65406;DHT22;52016;51.228;-2.322;2022-09-27T14:07:26;16.40;55.60
65406;DHT22;52016;51.228;-2.322;2022-09-27T14:11:16;16.40;55.90
65406;DHT22;52016;51.228;-2.322;2022-09-27T14:15:00;16.40;56.10
65406;DHT22;52016;51.228;-2.322;2022-09-27T14:18:52;16.50;56.30
65406;DHT22;52016;51.228;-2.322;2022-09-27T14:22:35;16.70;56.60
65406;DHT22;52016;51.228;-2.322;2022-09-27T14:26:26;16.90;56.50
65406;DHT22;52016;51.228;-2.322;2022-09-27T14:30:20;17.00;56.30
65406;DHT22;52016;51.228;-2.322;2022-09-27T14:34:06;16.90;56.40
65406;DHT22;52016;51.228;-2.322;2022-09-27T14:37:51;16.90;56.30
65406;DHT22;52016;51.228;-2.322;2022-09-27T14:41:37;16.70;56.50
65406;DHT22;52016;51.228;-2.322;2022-09-27T14:45:36;16.40;56.70
65406;DHT22;52016;51.228;-2.322;2022-09-27T14:49:22;16.10;57.20
65406;DHT22;52016;51.228;-2.322;2022-09-27T14:53:22;15.90;57.60
65406;DHT22;52016;51.228;-2.322;2022-09-27T14:57:06;15.90;58.30
65406;DHT22;52016;51.228;-2.322;2022-09-27T15:00:48;15.80;58.20
65406;DHT22;52016;51.228;-2.322;2022-09-27T15:04:31;15.70;58.40
65406;DHT22;52016;51.228;-2.322;2022-09-27T15:08:13;15.60;58.60
65406;DHT22;52016;51.228;-2.322;2022-09-27T15:11:58;15.40;59.50
65406;DHT22;52016;51.228;-2.322;2022-09-27T15:15:46;15.10;60.40
65406;DHT22;52016;51.228;-2.322;2022-09-27T15:19:29;14.90;61.30
65406;DHT22;52016;51.228;-2.322;2022-09-27T15:23:28;14.80;61.90
65406;DHT22;52016;51.228;-2.322;2022-09-27T15:27:14;14.60;63.60
65406;DHT22;52016;51.228;-2.322;2022-09-27T15:30:57;14.40;63.20
65406;DHT22;52016;51.228;-2.322;2022-09-27T15:34:39;14.40;63.60
65406;DHT22;52016;51.228;-2.322;2022-09-27T15:38:42;14.30;64.00
65406;DHT22;52016;51.228;-2.322;2022-09-27T15:42:28;14.30;65.60
65406;DHT22;52016;51.228;-2.322;2022-09-27T15:46:37;14.40;64.30
65406;DHT22;52016;51.228;-2.322;2022-09-27T15:54:06;14.60;64.00
65406;DHT22;52016;51.228;-2.322;2022-09-27T15:57:53;14.70;63.80
65406;DHT22;52016;51.228;-2.322;2022-09-27T16:01:35;14.80;63.60
65406;DHT22;52016;51.228;-2.322;2022-09-27T16:05:17;14.90;63.50
65406;DHT22;52016;51.228;-2.322;2022-09-27T16:08:59;14.80;63.30
65406;DHT22;52016;51.228;-2.322;2022-09-27T16:12:41;14.80;63.30
65406;DHT22;52016;51.228;-2.322;2022-09-27T16:16:25;14.70;63.30
65406;DHT22;52016;51.228;-2.322;2022-09-27T16:20:18;14.70;63.20
65406;DHT22;52016;51.228;-2.322;2022-09-27T16:24:02;14.70;63.10
65406;DHT22;52016;51.228;-2.322;2022-09-27T16:27:47;14.70;63.10
65406;DHT22;52016;51.228;-2.322;2022-09-27T16:31:29;14.60;63.30
65406;DHT22;52016;51.228;-2.322;2022-09-27T16:35:13;14.70;63.30
65406;DHT22;52016;51.228;-2.322;2022-09-27T16:38:55;14.60;63.30
65406;DHT22;52016;51.228;-2.322;2022-09-27T16:42:37;14.60;63.40
65406;DHT22;52016;51.228;-2.322;2022-09-27T16:46:20;14.50;63.40
65406;DHT22;52016;51.228;-2.322;2022-09-27T16:50:03;14.60;63.70
65406;DHT22;52016;51.228;-2.322;2022-09-27T16:54:05;14.50;63.70
65406;DHT22;52016;51.228;-2.322;2022-09-27T16:57:48;14.50;63.70
65406;DHT22;52016;51.228;-2.322;2022-09-27T17:01:30;14.50;63.80
65406;DHT22;52016;51.228;-2.322;2022-09-27T17:05:13;14.50;63.80
65406;DHT22;52016;51.228;-2.322;2022-09-27T17:08:55;14.50;63.80
65406;DHT22;52016;51.228;-2.322;2022-09-27T17:12:37;14.50;63.70
65406;DHT22;52016;51.228;-2.322;2022-09-27T17:16:19;14.50;63.70
65406;DHT22;52016;51.228;-2.322;2022-09-27T17:20:01;14.50;63.70
65406;DHT22;52016;51.228;-2.322;2022-09-27T17:23:43;14.50;63.70
65406;DHT22;52016;51.228;-2.322;2022-09-27T17:27:26;14.40;63.80
65406;DHT22;52016;51.228;-2.322;2022-09-27T17:31:10;14.30;64.00
65406;DHT22;52016;51.228;-2.322;2022-09-27T17:34:55;14.20;64.30
65406;DHT22;52016;51.228;-2.322;2022-09-27T17:38:38;14.10;64.50
65406;DHT22;52016;51.228;-2.322;2022-09-27T17:42:21;14.10;64.70
65406;DHT22;52016;51.228;-2.322;2022-09-27T17:46:07;14.00;64.70
65406;DHT22;52016;51.228;-2.322;2022-09-27T17:49:49;14.00;64.80
65406;DHT22;52016;51.228;-2.322;2022-09-27T17:53:51;14.00;64.70
65406;DHT22;52016;51.228;-2.322;2022-09-27T17:57:33;13.90;64.80
65406;DHT22;52016;51.228;-2.322;2022-09-27T18:01:16;13.90;64.80
65406;DHT22;52016;51.228;-2.322;2022-09-27T18:04:59;13.90;65.00
65406;DHT22;52016;51.228;-2.322;2022-09-27T18:08:41;13.80;65.10
65406;DHT22;52016;51.228;-2.322;2022-09-27T18:12:23;13.70;65.20
65406;DHT22;52016;51.228;-2.322;2022-09-27T18:16:18;13.70;65.20
65406;DHT22;52016;51.228;-2.322;2022-09-27T18:20:00;13.60;65.70
65406;DHT22;52016;51.228;-2.322;2022-09-27T18:23:42;13.60;65.50
65406;DHT22;52016;51.228;-2.322;2022-09-27T18:27:24;13.50;65.70
65406;DHT22;52016;51.228;-2.322;2022-09-27T18:31:12;13.50;65.90
65406;DHT22;52016;51.228;-2.322;2022-09-27T18:34:54;13.40;66.20
65406;DHT22;52016;51.228;-2.322;2022-09-27T18:38:36;13.40;65.90
65406;DHT22;52016;51.228;-2.322;2022-09-27T18:42:18;13.40;66.00
65406;DHT22;52016;51.228;-2.322;2022-09-27T18:46:01;13.40;66.00
65406;DHT22;52016;51.228;-2.322;2022-09-27T18:50:03;13.40;66.90
65406;DHT22;52016;51.228;-2.322;2022-09-27T18:53:46;13.40;66.40
65406;DHT22;52016;51.228;-2.322;2022-09-27T18:57:28;13.30;66.50
65406;DHT22;52016;51.228;-2.322;2022-09-27T19:01:14;13.40;66.60
65406;DHT22;52016;51.228;-2.322;2022-09-27T19:04:56;13.30;66.60
65406;DHT22;52016;51.228;-2.322;2022-09-27T19:08:39;13.30;66.60
65406;DHT22;52016;51.228;-2.322;2022-09-27T19:12:21;13.30;66.60
65406;DHT22;52016;51.228;-2.322;2022-09-27T19:16:03;13.40;66.60
65406;DHT22;52016;51.228;-2.322;2022-09-27T19:19:46;13.30;66.70
65406;DHT22;52016;51.228;-2.322;2022-09-27T19:23:27;13.30;66.80
65406;DHT22;52016;51.228;-2.322;2022-09-27T19:27:10;13.30;66.70
65406;DHT22;52016;51.228;-2.322;2022-09-27T19:30:52;13.30;66.70
65406;DHT22;52016;51.228;-2.322;2022-09-27T19:34:34;13.30;66.80
65406;DHT22;52016;51.228;-2.322;2022-09-27T19:38:16;13.30;66.90
65406;DHT22;52016;51.228;-2.322;2022-09-27T19:41:58;13.30;66.80
65406;DHT22;52016;51.228;-2.322;2022-09-27T19:45:40;13.30;66.80
65406;DHT22;52016;51.228;-2.322;2022-09-27T19:49:21;13.40;66.70
65406;DHT22;52016;51.228;-2.322;2022-09-27T19:53:03;13.40;66.70
65406;DHT22;52016;51.228;-2.322;2022-09-27T19:56:47;13.30;66.80
65406;DHT22;52016;51.228;-2.322;2022-09-27T20:00:31;13.30;66.70
65406;DHT22;52016;51.228;-2.322;2022-09-27T20:04:13;13.30;66.70
65406;DHT22;52016;51.228;-2.322;2022-09-27T20:07:55;13.40;66.70
65406;DHT22;52016;51.228;-2.322;2022-09-27T20:11:37;13.40;66.70
65406;DHT22;52016;51.228;-2.322;2022-09-27T20:15:19;13.30;66.60
65406;DHT22;52016;51.228;-2.322;2022-09-27T20:19:01;13.40;66.50
65406;DHT22;52016;51.228;-2.322;2022-09-27T20:22:43;13.40;66.40
65406;DHT22;52016;51.228;-2.322;2022-09-27T20:26:27;13.40;66.40
65406;DHT22;52016;51.228;-2.322;2022-09-27T20:30:09;13.30;66.30
65406;DHT22;52016;51.228;-2.322;2022-09-27T20:33:51;13.30;66.30
65406;DHT22;52016;51.228;-2.322;2022-09-27T20:37:33;13.30;66.20
65406;DHT22;52016;51.228;-2.322;2022-09-27T20:41:17;13.30;66.20
65406;DHT22;52016;51.228;-2.322;2022-09-27T20:45:00;13.30;66.10
65406;DHT22;52016;51.228;-2.322;2022-09-27T20:48:42;13.30;66.00
65406;DHT22;52016;51.228;-2.322;2022-09-27T20:52:24;13.30;65.90
65406;DHT22;52016;51.228;-2.322;2022-09-27T20:56:14;13.30;65.80
65406;DHT22;52016;51.228;-2.322;2022-09-27T20:59:56;13.20;65.50
65406;DHT22;52016;51.228;-2.322;2022-09-27T21:03:38;13.20;65.40
65406;DHT22;52016;51.228;-2.322;2022-09-27T21:07:20;13.20;65.30
65406;DHT22;52016;51.228;-2.322;2022-09-27T21:11:11;13.10;65.20
65406;DHT22;52016;51.228;-2.322;2022-09-27T21:14:53;13.10;65.10
65406;DHT22;52016;51.228;-2.322;2022-09-27T21:18:35;13.10;65.00
65406;DHT22;52016;51.228;-2.322;2022-09-27T21:22:18;13.10;64.90
65406;DHT22;52016;51.228;-2.322;2022-09-27T21:26:09;13.10;64.80
65406;DHT22;52016;51.228;-2.322;2022-09-27T21:29:51;13.10;64.60
65406;DHT22;52016;51.228;-2.322;2022-09-27T21:33:33;13.10;64.70
65406;DHT22;52016;51.228;-2.322;2022-09-27T21:37:15;13.00;64.60
65406;DHT22;52016;51.228;-2.322;2022-09-27T21:41:04;13.00;64.50
65406;DHT22;52016;51.228;-2.322;2022-09-27T21:44:46;12.90;64.40
65406;DHT22;52016;51.228;-2.322;2022-09-27T21:48:29;12.80;64.50
65406;DHT22;52016;51.228;-2.322;2022-09-27T21:52:11;12.70;64.40
65406;DHT22;52016;51.228;-2.322;2022-09-27T21:55:54;12.60;64.40
65406;DHT22;52016;51.228;-2.322;2022-09-27T21:59:36;12.50;64.50
65406;DHT22;52016;51.228;-2.322;2022-09-27T22:03:18;12.50;64.50
65406;DHT22;52016;51.228;-2.322;2022-09-27T22:07:01;12.40;64.60
65406;DHT22;52016;51.228;-2.322;2022-09-27T22:10:44;12.40;64.60
65406;DHT22;52016;51.228;-2.322;2022-09-27T22:14:26;12.30;64.70
65406;DHT22;52016;51.228;-2.322;2022-09-27T22:18:08;12.30;64.70
65406;DHT22;52016;51.228;-2.322;2022-09-27T22:21:50;12.20;64.70
65406;DHT22;52016;51.228;-2.322;2022-09-27T22:25:32;12.10;64.80
65406;DHT22;52016;51.228;-2.322;2022-09-27T22:29:14;12.10;64.80
65406;DHT22;52016;51.228;-2.322;2022-09-27T22:32:56;12.10;64.90
65406;DHT22;52016;51.228;-2.322;2022-09-27T22:36:38;12.10;64.90
65406;DHT22;52016;51.228;-2.322;2022-09-27T22:40:20;12.00;64.90
65406;DHT22;52016;51.228;-2.322;2022-09-27T22:44:02;12.00;64.90
65406;DHT22;52016;51.228;-2.322;2022-09-27T22:47:44;11.90;64.90
65406;DHT22;52016;51.228;-2.322;2022-09-27T22:51:26;11.90;64.90
65406;DHT22;52016;51.228;-2.322;2022-09-27T22:55:08;11.80;65.00
65406;DHT22;52016;51.228;-2.322;2022-09-27T22:58:50;11.80;65.10
65406;DHT22;52016;51.228;-2.322;2022-09-27T23:02:32;11.80;65.20
65406;DHT22;52016;51.228;-2.322;2022-09-27T23:06:16;11.70;65.20
65406;DHT22;52016;51.228;-2.322;2022-09-27T23:09:58;11.70;65.30
65406;DHT22;52016;51.228;-2.322;2022-09-27T23:13:41;11.60;65.30
65406;DHT22;52016;51.228;-2.322;2022-09-27T23:17:24;11.60;65.40
65406;DHT22;52016;51.228;-2.322;2022-09-27T23:21:08;11.50;65.50
65406;DHT22;52016;51.228;-2.322;2022-09-27T23:24:51;11.50;65.50
65406;DHT22;52016;51.228;-2.322;2022-09-27T23:28:33;11.60;65.50
65406;DHT22;52016;51.228;-2.322;2022-09-27T23:32:15;11.50;65.50
65406;DHT22;52016;51.228;-2.322;2022-09-27T23:35:59;11.40;65.60
65406;DHT22;52016;51.228;-2.322;2022-09-27T23:39:42;11.40;65.60
65406;DHT22;52016;51.228;-2.322;2022-09-27T23:43:24;11.40;65.60
65406;DHT22;52016;51.228;-2.322;2022-09-27T23:47:07;11.30;65.70
65406;DHT22;52016;51.228;-2.322;2022-09-27T23:50:49;11.20;65.90
65406;DHT22;52016;51.228;-2.322;2022-09-27T23:54:32;11.10;66.00
65406;DHT22;52016;51.228;-2.322;2022-09-27T23:58:14;11.10;66.10
